createdAt,value
2022-10-17T00:00:20.103Z,1014.26
2022-10-17T00:01:20.116Z,1014.16
2022-10-17T00:02:20.051Z,1014.22
2022-10-17T00:03:20.029Z,1014.20
2022-10-17T00:04:20.017Z,1014.14
2022-10-17T00:05:20.162Z,1014.12
2022-10-17T00:06:19.996Z,1014.18
2022-10-17T00:07:19.993Z,1014.15
2022-10-17T00:08:19.976Z,1014.11
2022-10-17T00:09:19.951Z,1014.11
2022-10-17T00:10:19.930Z,1014.22
2022-10-17T00:11:19.964Z,1014.13
2022-10-17T00:12:19.924Z,1014.19
2022-10-17T00:13:19.912Z,1014.14
2022-10-17T00:14:19.885Z,1014.13
2022-10-17T00:15:19.872Z,1014.16
2022-10-17T00:16:19.844Z,1014.20
2022-10-17T00:17:19.966Z,1014.20
2022-10-17T00:18:19.823Z,1014.17
2022-10-17T00:19:19.827Z,1014.16
2022-10-17T00:20:19.809Z,1014.23
2022-10-17T00:21:19.784Z,1014.21
2022-10-17T00:22:19.789Z,1014.21
2022-10-17T00:23:19.873Z,1014.26
2022-10-17T00:24:19.743Z,1014.28
2022-10-17T00:25:19.749Z,1014.30
2022-10-17T00:26:19.727Z,1014.30
2022-10-17T00:27:19.708Z,1014.30
2022-10-17T00:28:19.687Z,1014.30
2022-10-17T00:29:19.812Z,1014.32
2022-10-17T00:30:19.658Z,1014.27
2022-10-17T00:31:19.663Z,1014.29
2022-10-17T00:32:19.684Z,1014.27
2022-10-17T00:33:19.619Z,1014.28
2022-10-17T00:34:19.622Z,1014.34
2022-10-17T00:35:19.629Z,1014.33
2022-10-17T00:36:19.585Z,1014.32
2022-10-17T00:37:19.583Z,1014.33
2022-10-17T00:38:19.548Z,1014.34
2022-10-17T00:39:19.552Z,1014.34
2022-10-17T00:40:19.546Z,1014.33
2022-10-17T00:41:19.644Z,1014.35
2022-10-17T00:42:19.490Z,1014.38
2022-10-17T00:43:19.502Z,1014.39
2022-10-17T00:44:19.485Z,1014.37
2022-10-17T00:45:19.459Z,1014.36
2022-10-17T00:46:19.458Z,1014.33
2022-10-17T00:47:19.453Z,1014.32
2022-10-17T00:48:22.583Z,1014.33
2022-10-17T00:49:19.416Z,1014.35
2022-10-17T00:50:19.384Z,1014.36
2022-10-17T00:51:19.397Z,1014.36
2022-10-17T00:52:19.367Z,1014.40
2022-10-17T00:53:19.473Z,1014.44
2022-10-17T00:54:19.347Z,1014.46
2022-10-17T00:55:19.323Z,1014.44
2022-10-17T00:56:19.315Z,1014.43
2022-10-17T00:57:19.310Z,1014.45
2022-10-17T00:58:19.284Z,1014.46
2022-10-17T00:59:19.398Z,1014.47
2022-10-17T01:00:19.268Z,1014.43
2022-10-17T01:01:19.286Z,1014.42
2022-10-17T01:02:19.239Z,1014.42
2022-10-17T01:03:19.215Z,1014.41
2022-10-17T01:04:19.196Z,1014.40
2022-10-17T01:05:19.331Z,1014.39
2022-10-17T01:06:19.167Z,1014.40
2022-10-17T01:07:19.172Z,1014.37
2022-10-17T01:08:19.165Z,1014.39
2022-10-17T01:09:19.128Z,1014.38
2022-10-17T01:10:19.165Z,1014.43
2022-10-17T01:11:19.138Z,1014.44
2022-10-17T01:12:19.088Z,1014.43
2022-10-17T01:13:19.093Z,1014.43
2022-10-17T01:14:19.076Z,1014.40
2022-10-17T01:15:19.051Z,1014.44
2022-10-17T01:16:19.030Z,1014.49
2022-10-17T01:17:19.064Z,1014.47
2022-10-17T01:18:19.000Z,1014.47
2022-10-17T01:19:19.081Z,1014.46
2022-10-17T01:20:18.995Z,1014.48
2022-10-17T01:21:18.973Z,1014.46
2022-10-17T01:22:18.966Z,1014.46
2022-10-17T01:23:19.052Z,1014.47
2022-10-17T01:24:18.922Z,1014.43
2022-10-17T01:25:18.928Z,1014.46
2022-10-17T01:26:18.894Z,1014.47
2022-10-17T01:27:18.908Z,1014.43
2022-10-17T01:28:18.889Z,1014.42
2022-10-17T01:29:18.969Z,1014.39
2022-10-17T01:30:18.849Z,1014.42
2022-10-17T01:31:18.849Z,1014.39
2022-10-17T01:32:18.836Z,1014.40
2022-10-17T01:33:18.805Z,1014.34
2022-10-17T01:34:18.799Z,1014.33
2022-10-17T01:35:18.895Z,1014.33
2022-10-17T01:36:18.757Z,1014.31
2022-10-17T01:37:18.770Z,1014.28
2022-10-17T01:38:18.746Z,1014.24
2022-10-17T01:39:18.741Z,1014.21
2022-10-17T01:40:18.720Z,1014.16
2022-10-17T01:41:18.808Z,1014.16
2022-10-17T01:42:18.711Z,1014.14
2022-10-17T01:43:18.688Z,1014.15
2022-10-17T01:44:18.651Z,1014.12
2022-10-17T01:45:18.661Z,1014.11
2022-10-17T01:46:18.668Z,1014.08
2022-10-17T01:47:18.911Z,1014.12
2022-10-17T01:48:18.597Z,1014.11
2022-10-17T01:49:18.605Z,1014.13
2022-10-17T01:50:18.573Z,1014.10
2022-10-17T01:51:18.577Z,1014.14
2022-10-17T01:52:18.556Z,1014.08
2022-10-17T01:53:18.562Z,1014.05
2022-10-17T01:54:18.533Z,1014.05
2022-10-17T01:55:18.511Z,1014.02
2022-10-17T01:56:18.485Z,1014.00
2022-10-17T01:57:18.496Z,1013.96
2022-10-17T01:58:18.465Z,1013.96
2022-10-17T02:00:51.264Z,1013.88
2022-10-17T02:01:30.293Z,1013.89
2022-10-17T02:02:30.221Z,1013.89
2022-10-17T02:03:30.216Z,1013.89
2022-10-17T02:04:30.311Z,1013.88
2022-10-17T02:05:30.188Z,1013.89
2022-10-17T02:06:30.185Z,1013.90
2022-10-17T02:07:30.438Z,1013.90
2022-10-17T02:08:30.146Z,1013.91
2022-10-17T02:09:30.113Z,1013.87
2022-10-17T02:10:30.132Z,1013.84
2022-10-17T02:11:30.099Z,1013.81
2022-10-17T02:12:30.083Z,1013.84
2022-10-17T02:13:30.077Z,1013.82
2022-10-17T02:14:30.071Z,1013.83
2022-10-17T02:15:30.034Z,1013.81
2022-10-17T02:16:30.178Z,1013.79
2022-10-17T02:17:30.284Z,1013.81
2022-10-17T02:18:30.003Z,1013.78
2022-10-17T02:19:29.997Z,1013.75
2022-10-17T02:20:29.966Z,1013.76
2022-10-17T02:21:29.969Z,1013.74
2022-10-17T02:22:30.069Z,1013.73
2022-10-17T02:23:29.931Z,1013.74
2022-10-17T02:24:29.939Z,1013.71
2022-10-17T02:25:29.897Z,1013.75
2022-10-17T02:26:29.897Z,1013.75
2022-10-17T02:27:30.497Z,1013.74
2022-10-17T02:28:30.013Z,1013.70
2022-10-17T02:29:29.860Z,1013.67
2022-10-17T02:30:29.851Z,1013.63
2022-10-17T02:31:29.819Z,1013.61
2022-10-17T02:32:29.811Z,1013.61
2022-10-17T02:33:29.804Z,1013.60
2022-10-17T02:34:29.912Z,1013.59
2022-10-17T02:35:29.770Z,1013.58
2022-10-17T02:36:29.770Z,1013.58
2022-10-17T02:37:30.128Z,1013.58
2022-10-17T02:38:29.731Z,1013.51
2022-10-17T02:39:29.724Z,1013.57
2022-10-17T02:40:29.815Z,1013.53
2022-10-17T02:42:29.889Z,1013.55
2022-10-17T02:43:29.665Z,1013.55
2022-10-17T02:44:29.667Z,1013.47
2022-10-17T02:45:29.633Z,1013.49
2022-10-17T02:46:29.646Z,1013.59
2022-10-17T02:47:29.618Z,1013.55
2022-10-17T02:48:29.607Z,1013.53
2022-10-17T02:49:29.574Z,1013.57
2022-10-17T02:51:29.560Z,1013.56
2022-10-17T02:52:29.801Z,1013.58
2022-10-17T02:53:29.539Z,1013.52
2022-10-17T02:54:29.570Z,1013.55
2022-10-17T02:55:29.496Z,1013.54
2022-10-17T02:56:29.500Z,1013.54
2022-10-17T02:57:29.468Z,1013.58
2022-10-17T02:58:29.566Z,1013.55
2022-10-17T02:59:29.502Z,1013.59
2022-10-17T03:00:29.427Z,1013.56
2022-10-17T03:01:29.516Z,1013.53
2022-10-17T03:02:29.620Z,1013.53
2022-10-17T03:03:29.386Z,1013.55
2022-10-17T03:04:29.420Z,1013.52
2022-10-17T03:05:29.370Z,1013.53
2022-10-17T03:06:29.364Z,1013.58
2022-10-17T03:07:29.329Z,1013.57
2022-10-17T03:08:29.391Z,1013.64
2022-10-17T03:09:29.303Z,1013.56
2022-10-17T03:10:29.404Z,1013.55
2022-10-17T03:11:29.295Z,1013.58
2022-10-17T03:12:29.550Z,1013.54
2022-10-17T03:13:29.263Z,1013.56
2022-10-17T03:14:29.264Z,1013.60
2022-10-17T03:15:29.212Z,1013.55
2022-10-17T03:16:29.336Z,1013.59
2022-10-17T03:17:29.193Z,1013.62
2022-10-17T03:18:29.184Z,1013.57
2022-10-17T03:19:29.177Z,1013.56
2022-10-17T03:20:29.153Z,1013.57
2022-10-17T03:21:29.148Z,1013.62
2022-10-17T03:22:29.548Z,1013.61
2022-10-17T03:23:29.105Z,1013.62
2022-10-17T03:24:29.119Z,1013.59
2022-10-17T03:25:29.084Z,1013.57
2022-10-17T03:26:29.075Z,1013.59
2022-10-17T03:27:29.316Z,1013.55
2022-10-17T03:28:29.208Z,1013.53
2022-10-17T03:29:29.042Z,1013.55
2022-10-17T03:30:29.031Z,1013.54
2022-10-17T03:31:29.007Z,1013.51
2022-10-17T03:32:29.008Z,1013.54
2022-10-17T03:33:28.975Z,1013.48
2022-10-17T03:34:29.077Z,1013.50
2022-10-17T03:35:28.971Z,1013.50
2022-10-17T03:36:28.952Z,1013.56
2022-10-17T03:37:29.144Z,1013.52
2022-10-17T03:38:28.909Z,1013.56
2022-10-17T03:39:28.902Z,1013.57
2022-10-17T03:40:28.991Z,1013.55
2022-10-17T03:41:28.891Z,1013.53
2022-10-17T03:42:28.875Z,1013.59
2022-10-17T03:43:28.841Z,1013.62
2022-10-17T03:44:28.844Z,1013.58
2022-10-17T03:45:28.811Z,1013.60
2022-10-17T03:46:28.919Z,1013.59
2022-10-17T03:47:29.152Z,1013.56
2022-10-17T03:48:28.772Z,1013.60
2022-10-17T03:49:28.776Z,1013.57
2022-10-17T03:50:28.775Z,1013.59
2022-10-17T03:51:28.724Z,1013.63
2022-10-17T03:52:28.835Z,1013.65
2022-10-17T03:53:28.718Z,1013.63
2022-10-17T03:54:28.720Z,1013.62
2022-10-17T03:55:28.683Z,1013.65
2022-10-17T03:56:28.686Z,1013.65
2022-10-17T03:57:28.906Z,1013.66
2022-10-17T03:58:28.789Z,1013.63
2022-10-17T03:59:28.639Z,1013.64
2022-10-17T04:00:28.622Z,1013.68
2022-10-17T04:01:28.663Z,1013.69
2022-10-17T04:02:28.610Z,1013.65
2022-10-17T04:03:28.574Z,1013.63
2022-10-17T04:04:28.600Z,1013.66
2022-10-17T04:05:28.539Z,1013.63
2022-10-17T04:06:28.529Z,1013.65
2022-10-17T04:07:28.535Z,1013.65
2022-10-17T04:08:28.522Z,1013.62
2022-10-17T04:09:28.487Z,1013.64
2022-10-17T04:10:28.600Z,1013.63
2022-10-17T04:11:28.472Z,1013.63
2022-10-17T04:12:28.688Z,1013.65
2022-10-17T04:13:28.444Z,1013.63
2022-10-17T04:14:28.441Z,1013.63
2022-10-17T04:15:28.401Z,1013.65
2022-10-17T04:16:28.443Z,1013.65
2022-10-17T04:17:28.381Z,1013.64
2022-10-17T04:18:28.369Z,1013.64
2022-10-17T04:19:28.365Z,1013.67
2022-10-17T04:20:28.342Z,1013.64
2022-10-17T04:21:28.337Z,1013.62
2022-10-17T04:22:28.657Z,1013.68
2022-10-17T04:23:28.301Z,1013.69
2022-10-17T04:24:28.336Z,1013.68
2022-10-17T04:25:29.651Z,1013.71
2022-10-17T04:26:28.273Z,1013.71
2022-10-17T04:27:28.255Z,1013.72
2022-10-17T04:28:28.511Z,1013.65
2022-10-17T04:29:28.227Z,1013.67
2022-10-17T04:30:28.218Z,1013.67
2022-10-17T04:31:28.212Z,1013.64
2022-10-17T04:32:28.531Z,1013.71
2022-10-17T04:33:28.156Z,1013.67
2022-10-17T04:34:28.187Z,1013.68
2022-10-17T04:35:28.150Z,1013.65
2022-10-17T04:36:28.126Z,1013.65
2022-10-17T04:37:28.119Z,1013.66
2022-10-17T04:38:28.718Z,1013.67
2022-10-17T04:39:28.075Z,1013.64
2022-10-17T04:40:28.098Z,1013.67
2022-10-17T04:41:28.062Z,1013.66
2022-10-17T04:42:28.536Z,1013.68
2022-10-17T04:43:28.028Z,1013.65
2022-10-17T04:44:28.033Z,1013.63
2022-10-17T04:45:28.000Z,1013.64
2022-10-17T04:46:28.097Z,1013.62
2022-10-17T04:47:27.984Z,1013.64
2022-10-17T04:48:27.959Z,1013.66
2022-10-17T04:49:27.992Z,1013.67
2022-10-17T04:50:27.953Z,1013.68
2022-10-17T04:51:27.912Z,1013.70
2022-10-17T04:52:28.331Z,1013.73
2022-10-17T04:53:27.891Z,1013.69
2022-10-17T04:54:27.882Z,1013.70
2022-10-17T04:55:27.885Z,1013.72
2022-10-17T04:56:27.869Z,1013.71
2022-10-17T04:57:27.832Z,1013.70
2022-10-17T04:58:27.852Z,1013.68
2022-10-17T04:59:27.817Z,1013.68
2022-10-17T05:00:27.801Z,1013.73
2022-10-17T05:01:27.826Z,1013.64
2022-10-17T05:02:28.243Z,1013.66
2022-10-17T05:03:27.768Z,1013.70
2022-10-17T05:04:27.889Z,1013.66
2022-10-17T05:05:27.725Z,1013.67
2022-10-17T05:06:27.724Z,1013.68
2022-10-17T05:07:27.709Z,1013.69
2022-10-17T05:08:27.695Z,1013.64
2022-10-17T05:09:27.691Z,1013.67
2022-10-17T05:10:27.811Z,1013.66
2022-10-17T05:11:27.670Z,1013.62
2022-10-17T05:12:27.957Z,1013.57
2022-10-17T05:13:27.634Z,1013.63
2022-10-17T05:14:27.650Z,1013.59
2022-10-17T05:15:27.599Z,1013.60
2022-10-17T05:16:27.711Z,1013.61
2022-10-17T05:17:27.560Z,1013.60
2022-10-17T05:18:27.559Z,1013.64
2022-10-17T05:19:27.554Z,1013.63
2022-10-17T05:20:27.532Z,1013.67
2022-10-17T05:21:27.578Z,1013.62
2022-10-17T05:22:27.880Z,1013.73
2022-10-17T05:23:27.480Z,1013.66
2022-10-17T05:24:27.494Z,1013.66
2022-10-17T05:25:27.460Z,1013.71
2022-10-17T05:26:27.451Z,1013.69
2022-10-17T05:27:27.445Z,1013.62
2022-10-17T05:28:27.516Z,1013.64
2022-10-17T05:29:27.414Z,1013.60
2022-10-17T05:30:27.392Z,1013.62
2022-10-17T05:31:27.396Z,1013.56
2022-10-17T05:32:27.577Z,1013.57
2022-10-17T05:33:27.366Z,1013.61
2022-10-17T05:34:27.477Z,1013.62
2022-10-17T05:35:27.342Z,1013.57
2022-10-17T05:36:27.328Z,1013.54
2022-10-17T05:37:27.312Z,1013.56
2022-10-17T05:38:27.275Z,1013.53
2022-10-17T05:39:27.294Z,1013.51
2022-10-17T05:40:27.395Z,1013.52
2022-10-17T05:41:27.260Z,1013.50
2022-10-17T05:42:27.555Z,1013.53
2022-10-17T05:43:27.215Z,1013.49
2022-10-17T05:44:27.214Z,1013.51
2022-10-17T05:45:27.210Z,1013.57
2022-10-17T05:46:27.225Z,1013.56
2022-10-17T05:47:27.514Z,1013.58
2022-10-17T05:48:27.161Z,1013.60
2022-10-17T05:49:33.259Z,1013.62
2022-10-17T05:50:28.145Z,1013.59
2022-10-17T05:51:27.142Z,1013.61
2022-10-17T05:52:27.324Z,1013.63
2022-10-17T05:53:27.127Z,1013.60
2022-10-17T05:54:27.085Z,1013.55
2022-10-17T05:55:27.050Z,1013.56
2022-10-17T05:56:27.055Z,1013.57
2022-10-17T05:57:27.020Z,1013.57
2022-10-17T05:59:28.012Z,1013.54
2022-10-17T06:00:26.993Z,1013.51
2022-10-17T06:01:26.970Z,1013.44
2022-10-17T06:02:27.358Z,1013.46
2022-10-17T06:03:26.965Z,1013.47
2022-10-17T06:04:26.972Z,1013.43
2022-10-17T06:05:26.934Z,1013.43
2022-10-17T06:06:26.908Z,1013.48
2022-10-17T06:07:26.891Z,1013.46
2022-10-17T06:08:26.886Z,1013.42
2022-10-17T06:09:26.870Z,1013.47
2022-10-17T06:10:26.883Z,1013.43
2022-10-17T06:11:26.849Z,1013.43
2022-10-17T06:12:27.194Z,1013.47
2022-10-17T06:13:26.829Z,1013.47
2022-10-17T06:14:26.826Z,1013.52
2022-10-17T06:15:26.776Z,1013.51
2022-10-17T06:16:26.886Z,1013.52
2022-10-17T06:17:26.769Z,1013.52
2022-10-17T06:18:26.748Z,1013.52
2022-10-17T06:19:26.725Z,1013.58
2022-10-17T06:20:26.722Z,1013.59
2022-10-17T06:21:26.697Z,1013.59
2022-10-17T06:22:27.130Z,1013.67
2022-10-17T06:23:26.691Z,1013.64
2022-10-17T06:24:26.649Z,1013.69
2022-10-17T06:25:26.662Z,1013.66
2022-10-17T06:26:26.641Z,1013.61
2022-10-17T06:27:26.616Z,1013.63
2022-10-17T06:28:26.835Z,1013.66
2022-10-17T06:29:26.589Z,1013.69
2022-10-17T06:30:26.570Z,1013.69
2022-10-17T06:31:26.573Z,1013.77
2022-10-17T06:32:26.697Z,1013.76
2022-10-17T06:33:26.581Z,1013.77
2022-10-17T06:34:26.643Z,1013.78
2022-10-17T06:35:26.512Z,1013.79
2022-10-17T06:36:26.506Z,1013.87
2022-10-17T06:37:27.217Z,1013.83
2022-10-17T06:38:26.464Z,1013.83
2022-10-17T06:39:26.467Z,1013.81
2022-10-17T06:40:26.582Z,1013.83
2022-10-17T06:41:26.447Z,1013.88
2022-10-17T06:42:26.435Z,1013.87
2022-10-17T06:43:27.951Z,1013.93
2022-10-17T06:44:26.399Z,1013.85
2022-10-17T06:45:26.374Z,1013.90
2022-10-17T06:46:26.384Z,1013.92
2022-10-17T06:47:26.369Z,1013.92
2022-10-17T06:48:26.350Z,1013.89
2022-10-17T06:49:26.317Z,1013.96
2022-10-17T06:50:26.326Z,1013.98
2022-10-17T06:51:26.311Z,1013.99
2022-10-17T06:52:26.397Z,1014.09
2022-10-17T06:53:26.283Z,1014.10
2022-10-17T06:54:26.288Z,1014.14
2022-10-17T06:55:26.244Z,1014.13
2022-10-17T06:56:26.254Z,1014.19
2022-10-17T06:57:26.500Z,1014.12
2022-10-17T06:58:26.219Z,1014.16
2022-10-17T06:59:26.204Z,1014.16
2022-10-17T07:00:26.169Z,1014.16
2022-10-17T07:01:26.173Z,1014.17
2022-10-17T07:02:26.273Z,1014.18
2022-10-17T07:03:26.131Z,1014.16
2022-10-17T07:04:26.232Z,1014.13
2022-10-17T07:05:26.124Z,1014.13
2022-10-17T07:06:26.108Z,1014.12
2022-10-17T07:07:26.175Z,1014.10
2022-10-17T07:08:26.098Z,1014.12
2022-10-17T07:09:26.052Z,1014.14
2022-10-17T07:10:26.174Z,1014.18
2022-10-17T07:11:26.045Z,1014.14
2022-10-17T07:12:26.023Z,1014.19
2022-10-17T07:13:26.024Z,1014.18
2022-10-17T07:14:25.998Z,1014.21
2022-10-17T07:15:25.974Z,1014.22
2022-10-17T07:16:26.087Z,1014.27
2022-10-17T07:17:26.055Z,1014.26
2022-10-17T07:18:25.930Z,1014.30
2022-10-17T07:19:25.943Z,1014.28
2022-10-17T07:20:25.921Z,1014.35
2022-10-17T07:21:25.904Z,1014.37
2022-10-17T07:22:25.916Z,1014.42
2022-10-17T07:23:25.891Z,1014.41
2022-10-17T07:24:25.858Z,1014.42
2022-10-17T07:25:25.861Z,1014.44
2022-10-17T07:26:25.841Z,1014.49
2022-10-17T07:27:25.836Z,1014.50
2022-10-17T07:28:25.853Z,1014.53
2022-10-17T07:29:25.788Z,1014.49
2022-10-17T07:30:25.769Z,1014.52
2022-10-17T07:31:25.781Z,1014.53
2022-10-17T07:32:25.767Z,1014.45
2022-10-17T07:33:25.754Z,1014.48
2022-10-17T07:34:25.862Z,1014.41
2022-10-17T07:35:25.712Z,1014.41
2022-10-17T07:36:25.713Z,1014.43
2022-10-17T07:37:25.690Z,1014.45
2022-10-17T07:38:25.672Z,1014.38
2022-10-17T07:39:25.666Z,1014.36
2022-10-17T07:40:25.754Z,1014.37
2022-10-17T07:41:25.645Z,1014.34
2022-10-17T07:42:25.687Z,1014.33
2022-10-17T07:43:25.603Z,1014.35
2022-10-17T07:44:25.606Z,1014.33
2022-10-17T07:45:25.582Z,1014.37
2022-10-17T07:46:25.674Z,1014.38
2022-10-17T07:47:25.569Z,1014.40
2022-10-17T07:48:25.538Z,1014.41
2022-10-17T07:49:25.540Z,1014.46
2022-10-17T07:50:25.553Z,1014.47
2022-10-17T07:51:25.535Z,1014.51
2022-10-17T07:52:25.606Z,1014.44
2022-10-17T07:53:25.487Z,1014.49
2022-10-17T07:54:25.471Z,1014.45
2022-10-17T07:55:25.466Z,1014.46
2022-10-17T07:56:25.448Z,1014.49
2022-10-17T07:57:25.426Z,1014.51
2022-10-17T07:58:25.528Z,1014.52
2022-10-17T07:59:25.402Z,1014.53
2022-10-17T08:00:25.378Z,1014.49
2022-10-17T08:01:25.549Z,1014.45
2022-10-17T08:02:25.366Z,1014.46
2022-10-17T08:03:25.361Z,1014.48
2022-10-17T08:04:25.441Z,1014.50
2022-10-17T08:05:25.311Z,1014.48
2022-10-17T08:06:25.437Z,1014.51
2022-10-17T08:07:29.158Z,1014.50
2022-10-17T08:08:25.274Z,1014.47
2022-10-17T08:09:25.268Z,1014.50
2022-10-17T08:10:25.354Z,1014.42
2022-10-17T08:11:25.246Z,1014.44
2022-10-17T08:12:25.218Z,1014.45
2022-10-17T08:13:25.221Z,1014.45
2022-10-17T08:14:25.216Z,1014.48
2022-10-17T08:15:28.015Z,1014.44
2022-10-17T08:16:26.198Z,1014.44
2022-10-17T08:17:25.144Z,1014.43
2022-10-17T08:18:25.125Z,1014.42
2022-10-17T08:19:25.139Z,1014.43
2022-10-17T08:20:25.097Z,1014.42
2022-10-17T08:21:25.109Z,1014.33
2022-10-17T08:22:25.109Z,1014.38
2022-10-17T08:23:25.067Z,1014.39
2022-10-17T08:24:25.067Z,1014.34
2022-10-17T08:25:25.091Z,1014.38
2022-10-17T08:26:25.051Z,1014.36
2022-10-17T08:27:25.009Z,1014.29
2022-10-17T08:28:25.065Z,1014.27
2022-10-17T08:29:25.013Z,1014.33
2022-10-17T08:30:24.969Z,1014.34
2022-10-17T08:31:24.981Z,1014.29
2022-10-17T08:32:24.983Z,1014.25
2022-10-17T08:33:24.962Z,1014.31
2022-10-17T08:34:25.044Z,1014.24
2022-10-17T08:35:24.913Z,1014.28
2022-10-17T08:36:24.909Z,1014.28
2022-10-17T08:37:24.881Z,1014.25
2022-10-17T08:38:27.551Z,1014.19
2022-10-17T08:39:24.874Z,1014.27
2022-10-17T08:40:24.953Z,1014.21
2022-10-17T08:41:24.845Z,1014.24
2022-10-17T08:42:24.828Z,1014.21
2022-10-17T08:43:24.803Z,1014.21
2022-10-17T08:44:24.798Z,1014.24
2022-10-17T08:45:24.773Z,1014.22
2022-10-17T08:46:24.876Z,1014.22
2022-10-17T08:47:24.769Z,1014.23
2022-10-17T08:48:24.739Z,1014.23
2022-10-17T08:49:24.739Z,1014.21
2022-10-17T08:50:24.742Z,1014.21
2022-10-17T08:51:24.697Z,1014.21
2022-10-17T08:52:24.818Z,1014.28
2022-10-17T08:53:24.668Z,1014.29
2022-10-17T08:54:24.652Z,1014.36
2022-10-17T08:55:24.680Z,1014.35
2022-10-17T08:56:36.526Z,1014.39
2022-10-17T08:57:25.791Z,1014.36
2022-10-17T08:58:24.596Z,1014.33
2022-10-17T08:59:24.602Z,1014.32
2022-10-17T09:00:24.570Z,1014.36
2022-10-17T09:01:24.573Z,1014.35
2022-10-17T09:02:24.561Z,1014.37
2022-10-17T09:03:24.702Z,1014.35
2022-10-17T09:04:24.531Z,1014.35
2022-10-17T09:05:26.539Z,1014.36
2022-10-17T09:06:24.492Z,1014.36
2022-10-17T09:07:24.556Z,1014.32
2022-10-17T09:08:24.452Z,1014.36
2022-10-17T09:09:24.576Z,1014.36
2022-10-17T09:10:24.446Z,1014.34
2022-10-17T09:11:24.425Z,1014.33
2022-10-17T09:12:24.404Z,1014.34
2022-10-17T09:13:24.499Z,1014.35
2022-10-17T09:14:24.395Z,1014.39
2022-10-17T09:15:24.485Z,1014.40
2022-10-17T09:16:24.368Z,1014.45
2022-10-17T09:17:24.373Z,1014.33
2022-10-17T09:18:24.326Z,1014.34
2022-10-17T09:19:24.331Z,1014.31
2022-10-17T09:20:24.297Z,1014.29
2022-10-17T09:21:24.419Z,1014.28
2022-10-17T09:22:24.282Z,1014.27
2022-10-17T09:23:24.265Z,1014.28
2022-10-17T09:24:24.261Z,1014.24
2022-10-17T09:25:24.238Z,1014.22
2022-10-17T09:26:24.219Z,1014.22
2022-10-17T09:27:24.406Z,1014.23
2022-10-17T09:28:24.298Z,1014.23
2022-10-17T09:29:24.192Z,1014.28
2022-10-17T09:30:43.681Z,1014.29
2022-10-17T09:31:25.175Z,1014.29
2022-10-17T09:32:24.143Z,1014.29
2022-10-17T09:33:34.801Z,1014.25
2022-10-17T09:34:26.671Z,1014.25
2022-10-17T09:35:24.104Z,1014.24
2022-10-17T09:36:24.118Z,1014.25
2022-10-17T09:37:24.193Z,1014.29
2022-10-17T09:38:24.064Z,1014.32
2022-10-17T09:39:24.178Z,1014.35
2022-10-17T09:40:24.036Z,1014.37
2022-10-17T09:42:25.021Z,1014.35
2022-10-17T09:43:23.996Z,1014.32
2022-10-17T09:44:23.988Z,1014.32
2022-10-17T09:45:24.019Z,1014.32
2022-10-17T09:46:23.970Z,1014.34
2022-10-17T09:47:24.076Z,1014.39
2022-10-17T09:48:23.949Z,1014.37
2022-10-17T09:49:23.908Z,1014.42
2022-10-17T09:50:24.045Z,1014.40
2022-10-17T09:51:26.192Z,1014.45
2022-10-17T09:52:23.885Z,1014.51
2022-10-17T09:53:23.876Z,1014.52
2022-10-17T09:54:23.873Z,1014.54
2022-10-17T09:55:23.840Z,1014.54
2022-10-17T09:56:23.847Z,1014.56
2022-10-17T09:57:23.889Z,1014.55
2022-10-17T09:58:23.796Z,1014.59
2022-10-17T09:59:23.796Z,1014.63
2022-10-17T10:00:23.844Z,1014.60
2022-10-17T10:01:24.440Z,1014.60
2022-10-17T10:02:23.746Z,1014.67
2022-10-17T10:03:23.887Z,1014.62
2022-10-17T10:04:23.725Z,1014.67
2022-10-17T10:05:23.718Z,1014.57
2022-10-17T10:06:23.699Z,1014.53
2022-10-17T10:07:29.022Z,1014.56
2022-10-17T10:08:24.800Z,1014.52
2022-10-17T10:09:23.649Z,1014.47
2022-10-17T10:10:23.638Z,1014.43
2022-10-17T10:11:23.638Z,1014.37
2022-10-17T10:12:23.617Z,1014.38
2022-10-17T10:13:23.611Z,1014.37
2022-10-17T10:14:23.712Z,1014.38
2022-10-17T10:15:23.591Z,1014.40
2022-10-17T10:16:23.564Z,1014.43
2022-10-17T10:17:23.567Z,1014.45
2022-10-17T10:18:23.594Z,1014.44
2022-10-17T10:19:23.526Z,1014.40
2022-10-17T10:20:23.544Z,1014.46
2022-10-17T10:21:23.483Z,1014.43
2022-10-17T10:22:23.498Z,1014.49
2022-10-17T10:23:23.486Z,1014.48
2022-10-17T10:24:28.146Z,1014.51
2022-10-17T10:25:24.478Z,1014.48
2022-10-17T10:26:23.440Z,1014.54
2022-10-17T10:27:23.433Z,1014.56
2022-10-17T10:28:23.450Z,1014.61
2022-10-17T10:29:23.386Z,1014.66
2022-10-17T10:30:23.374Z,1014.69
2022-10-17T10:31:38.081Z,1014.72
2022-10-17T10:32:23.340Z,1014.82
2022-10-17T10:33:23.340Z,1014.86
2022-10-17T10:34:23.317Z,1014.88
2022-10-17T10:35:23.298Z,1014.90
2022-10-17T10:36:23.376Z,1014.94
2022-10-17T10:37:23.298Z,1014.93
2022-10-17T10:38:23.277Z,1014.96
2022-10-17T10:39:23.256Z,1014.97
2022-10-17T10:40:23.238Z,1014.98
2022-10-17T10:41:23.219Z,1015.02
2022-10-17T10:42:23.214Z,1015.04
2022-10-17T10:43:23.219Z,1015.14
2022-10-17T10:44:23.190Z,1015.16
2022-10-17T10:45:43.194Z,1015.17
2022-10-17T10:46:24.162Z,1015.17
2022-10-17T10:47:23.150Z,1015.18
2022-10-17T10:48:23.133Z,1015.12
2022-10-17T10:49:23.142Z,1015.15
2022-10-17T10:50:23.113Z,1015.13
2022-10-17T10:51:23.094Z,1015.17
2022-10-17T10:52:23.084Z,1015.08
2022-10-17T10:53:23.064Z,1015.05
2022-10-17T10:54:23.063Z,1015.03
2022-10-17T10:55:23.154Z,1015.11
2022-10-17T10:56:23.025Z,1015.06
2022-10-17T10:57:23.015Z,1015.08
2022-10-17T10:58:23.008Z,1015.07
2022-10-17T10:59:22.987Z,1015.12
2022-10-17T11:00:23.059Z,1015.16
2022-10-17T11:01:22.988Z,1015.20
2022-10-17T11:02:22.955Z,1015.32
2022-10-17T11:03:22.938Z,1015.33
2022-10-17T11:04:22.929Z,1015.33
2022-10-17T11:05:22.908Z,1015.33
2022-10-17T11:06:22.899Z,1015.34
2022-10-17T11:07:22.931Z,1015.40
2022-10-17T11:08:22.881Z,1015.37
2022-10-17T11:09:22.867Z,1015.33
2022-10-17T11:10:22.851Z,1015.30
2022-10-17T11:11:22.831Z,1015.31
2022-10-17T11:12:22.823Z,1015.33
2022-10-17T11:13:22.823Z,1015.28
2022-10-17T11:14:22.793Z,1015.31
2022-10-17T11:15:22.782Z,1015.34
2022-10-17T11:16:22.775Z,1015.34
2022-10-17T11:17:22.754Z,1015.34
2022-10-17T11:18:22.744Z,1015.35
2022-10-17T11:19:22.847Z,1015.40
2022-10-17T11:20:22.715Z,1015.41
2022-10-17T11:21:22.706Z,1015.51
2022-10-17T11:22:25.256Z,1015.49
2022-10-17T11:23:23.676Z,1015.51
2022-10-17T11:24:22.667Z,1015.53
2022-10-17T11:25:22.777Z,1015.55
2022-10-17T11:26:22.638Z,1015.61
2022-10-17T11:27:22.619Z,1015.55
2022-10-17T11:28:22.676Z,1015.62
2022-10-17T11:29:22.600Z,1015.68
2022-10-17T11:30:22.590Z,1015.63
2022-10-17T11:31:22.695Z,1015.65
2022-10-17T11:32:22.562Z,1015.66
2022-10-17T11:33:22.549Z,1015.75
2022-10-17T11:34:22.531Z,1015.78
2022-10-17T11:35:22.519Z,1015.78
2022-10-17T11:36:22.502Z,1015.81
2022-10-17T11:37:22.603Z,1015.82
2022-10-17T11:38:22.486Z,1015.87
2022-10-17T11:39:22.463Z,1015.90
2022-10-17T11:40:24.423Z,1015.96
2022-10-17T11:41:22.436Z,1015.91
2022-10-17T11:42:22.424Z,1016.00
2022-10-17T11:43:22.614Z,1016.05
2022-10-17T11:44:22.395Z,1016.02
2022-10-17T11:45:22.386Z,1016.02
2022-10-17T11:46:22.377Z,1016.04
2022-10-17T11:47:22.357Z,1016.03
2022-10-17T11:48:22.349Z,1016.00
2022-10-17T11:49:22.487Z,1016.01
2022-10-17T11:52:37.826Z,1015.97
2022-10-17T11:53:23.288Z,1015.89
2022-10-17T11:54:22.271Z,1015.89
2022-10-17T11:55:22.360Z,1015.87
2022-10-17T11:56:22.902Z,1015.89
2022-10-17T11:57:22.222Z,1015.95
2022-10-17T11:58:22.261Z,1015.98
2022-10-17T11:59:22.200Z,1015.99
2022-10-17T12:00:22.182Z,1015.99
2022-10-17T12:01:22.192Z,1016.02
2022-10-17T12:02:22.164Z,1016.07
2022-10-17T12:03:22.144Z,1016.07
2022-10-17T12:04:22.227Z,1016.14
2022-10-17T12:05:22.113Z,1016.11
2022-10-17T12:06:25.854Z,1016.14
2022-10-17T12:07:23.279Z,1016.19
2022-10-17T12:08:22.082Z,1016.20
2022-10-17T12:09:22.095Z,1016.20
2022-10-17T12:10:22.054Z,1016.23
2022-10-17T12:11:22.035Z,1016.28
2022-10-17T12:12:22.026Z,1016.25